sensor_id;sensor_type;location;lat;lon;timestamp;P1;durP1;ratioP1;P2;durP2;ratioP2
32407;SDS011;18869;55.970;37.502;2023-02-25T00:00:17;29.57;;;18.77;;
32407;SDS011;18869;55.970;37.502;2023-02-25T00:02:45;31.83;;;18.10;;
32407;SDS011;18869;55.970;37.502;2023-02-25T00:05:12;30.33;;;19.07;;
32407;SDS011;18869;55.970;37.502;2023-02-25T00:07:41;29.30;;;18.47;;
32407;SDS011;18869;55.970;37.502;2023-02-25T00:10:11;28.93;;;17.77;;
32407;SDS011;18869;55.970;37.502;2023-02-25T00:12:39;31.03;;;19.73;;
32407;SDS011;18869;55.970;37.502;2023-02-25T00:15:08;30.37;;;17.67;;
32407;SDS011;18869;55.970;37.502;2023-02-25T00:17:38;33.80;;;18.97;;
32407;SDS011;18869;55.970;37.502;2023-02-25T00:20:06;33.13;;;19.60;;
32407;SDS011;18869;55.970;37.502;2023-02-25T00:22:37;25.67;;;17.87;;
32407;SDS011;18869;55.970;37.502;2023-02-25T00:25:07;30.77;;;18.67;;
32407;SDS011;18869;55.970;37.502;2023-02-25T00:27:36;28.37;;;17.43;;
32407;SDS011;18869;55.970;37.502;2023-02-25T00:30:04;26.93;;;16.40;;
32407;SDS011;18869;55.970;37.502;2023-02-25T00:32:32;28.90;;;18.27;;
32407;SDS011;18869;55.970;37.502;2023-02-25T00:35:00;26.17;;;18.20;;
32407;SDS011;18869;55.970;37.502;2023-02-25T00:37:29;28.50;;;17.53;;
32407;SDS011;18869;55.970;37.502;2023-02-25T00:39:56;25.17;;;17.23;;
32407;SDS011;18869;55.970;37.502;2023-02-25T00:42:27;22.83;;;16.43;;
32407;SDS011;18869;55.970;37.502;2023-02-25T00:44:55;27.60;;;18.30;;
32407;SDS011;18869;55.970;37.502;2023-02-25T00:47:23;28.93;;;15.83;;
32407;SDS011;18869;55.970;37.502;2023-02-25T00:49:51;34.50;;;19.00;;
32407;SDS011;18869;55.970;37.502;2023-02-25T00:52:18;25.27;;;17.03;;
32407;SDS011;18869;55.970;37.502;2023-02-25T00:54:47;30.40;;;18.07;;
32407;SDS011;18869;55.970;37.502;2023-02-25T00:57:14;26.63;;;17.97;;
32407;SDS011;18869;55.970;37.502;2023-02-25T00:59:44;28.07;;;18.40;;
32407;SDS011;18869;55.970;37.502;2023-02-25T01:02:12;29.40;;;17.80;;
32407;SDS011;18869;55.970;37.502;2023-02-25T01:04:40;27.43;;;17.97;;
32407;SDS011;18869;55.970;37.502;2023-02-25T01:07:08;27.67;;;17.57;;
32407;SDS011;18869;55.970;37.502;2023-02-25T01:09:38;28.47;;;17.03;;
32407;SDS011;18869;55.970;37.502;2023-02-25T01:12:06;29.07;;;17.83;;
32407;SDS011;18869;55.970;37.502;2023-02-25T01:14:34;27.57;;;19.23;;
32407;SDS011;18869;55.970;37.502;2023-02-25T01:17:04;29.47;;;17.83;;
32407;SDS011;18869;55.970;37.502;2023-02-25T01:19:34;29.43;;;20.10;;
32407;SDS011;18869;55.970;37.502;2023-02-25T01:22:01;28.47;;;18.13;;
32407;SDS011;18869;55.970;37.502;2023-02-25T01:24:31;27.47;;;18.17;;
32407;SDS011;18869;55.970;37.502;2023-02-25T01:26:59;30.10;;;18.23;;
32407;SDS011;18869;55.970;37.502;2023-02-25T01:29:29;27.33;;;16.97;;
32407;SDS011;18869;55.970;37.502;2023-02-25T01:31:58;26.93;;;18.73;;
32407;SDS011;18869;55.970;37.502;2023-02-25T01:34:29;29.03;;;18.67;;
32407;SDS011;18869;55.970;37.502;2023-02-25T01:36:59;29.40;;;18.37;;
32407;SDS011;18869;55.970;37.502;2023-02-25T01:39:28;25.33;;;16.07;;
32407;SDS011;18869;55.970;37.502;2023-02-25T01:41:57;26.40;;;18.30;;
32407;SDS011;18869;55.970;37.502;2023-02-25T01:44:28;27.37;;;17.27;;
32407;SDS011;18869;55.970;37.502;2023-02-25T01:46:57;23.67;;;16.47;;
32407;SDS011;18869;55.970;37.502;2023-02-25T01:49:27;24.27;;;17.37;;
32407;SDS011;18869;55.970;37.502;2023-02-25T01:51:59;27.10;;;17.40;;
32407;SDS011;18869;55.970;37.502;2023-02-25T01:54:29;21.40;;;15.43;;
32407;SDS011;18869;55.970;37.502;2023-02-25T01:56:57;26.53;;;17.00;;
32407;SDS011;18869;55.970;37.502;2023-02-25T02:00:24;27.23;;;17.07;;
32407;SDS011;18869;55.970;37.502;2023-02-25T02:04:23;25.33;;;16.17;;
32407;SDS011;18869;55.970;37.502;2023-02-25T02:07:29;26.37;;;16.77;;
32407;SDS011;18869;55.970;37.502;2023-02-25T02:09:56;24.37;;;16.17;;
32407;SDS011;18869;55.970;37.502;2023-02-25T02:12:30;24.63;;;16.07;;
32407;SDS011;18869;55.970;37.502;2023-02-25T02:14:59;26.43;;;17.27;;
32407;SDS011;18869;55.970;37.502;2023-02-25T02:17:31;25.90;;;15.87;;
32407;SDS011;18869;55.970;37.502;2023-02-25T02:22:59;27.23;;;17.23;;
32407;SDS011;18869;55.970;37.502;2023-02-25T02:25:58;26.77;;;16.33;;
32407;SDS011;18869;55.970;37.502;2023-02-25T02:28:57;19.57;;;15.13;;
32407;SDS011;18869;55.970;37.502;2023-02-25T02:31:51;25.30;;;16.43;;
32407;SDS011;18869;55.970;37.502;2023-02-25T02:34:44;23.83;;;16.80;;
32407;SDS011;18869;55.970;37.502;2023-02-25T02:38:02;23.93;;;16.90;;
32407;SDS011;18869;55.970;37.502;2023-02-25T02:41:09;26.00;;;15.67;;
32407;SDS011;18869;55.970;37.502;2023-02-25T02:47:42;24.67;;;16.47;;
32407;SDS011;18869;55.970;37.502;2023-02-25T02:50:26;25.70;;;17.90;;
32407;SDS011;18869;55.970;37.502;2023-02-25T02:53:42;25.97;;;17.47;;
32407;SDS011;18869;55.970;37.502;2023-02-25T02:56:58;26.57;;;16.97;;
32407;SDS011;18869;55.970;37.502;2023-02-25T02:59:28;23.63;;;15.97;;
32407;SDS011;18869;55.970;37.502;2023-02-25T03:02:01;24.73;;;17.00;;
32407;SDS011;18869;55.970;37.502;2023-02-25T03:04:35;24.17;;;16.63;;
32407;SDS011;18869;55.970;37.502;2023-02-25T03:07:05;24.07;;;16.47;;
32407;SDS011;18869;55.970;37.502;2023-02-25T03:09:35;25.47;;;16.13;;
32407;SDS011;18869;55.970;37.502;2023-02-25T03:12:06;20.90;;;15.50;;
32407;SDS011;18869;55.970;37.502;2023-02-25T03:14:34;22.33;;;15.93;;
32407;SDS011;18869;55.970;37.502;2023-02-25T03:17:03;22.33;;;16.00;;
32407;SDS011;18869;55.970;37.502;2023-02-25T03:19:36;25.17;;;17.17;;
32407;SDS011;18869;55.970;37.502;2023-02-25T03:22:06;25.60;;;17.33;;
32407;SDS011;18869;55.970;37.502;2023-02-25T03:24:38;23.83;;;15.43;;
32407;SDS011;18869;55.970;37.502;2023-02-25T03:29:55;21.10;;;15.17;;
32407;SDS011;18869;55.970;37.502;2023-02-25T03:32:29;25.83;;;15.00;;
32407;SDS011;18869;55.970;37.502;2023-02-25T03:35:00;23.60;;;16.10;;
32407;SDS011;18869;55.970;37.502;2023-02-25T03:37:29;25.03;;;15.70;;
32407;SDS011;18869;55.970;37.502;2023-02-25T03:40:00;24.57;;;16.50;;
32407;SDS011;18869;55.970;37.502;2023-02-25T03:42:35;23.57;;;17.50;;
32407;SDS011;18869;55.970;37.502;2023-02-25T03:45:06;21.90;;;14.80;;
32407;SDS011;18869;55.970;37.502;2023-02-25T03:47:35;23.37;;;15.83;;
32407;SDS011;18869;55.970;37.502;2023-02-25T03:50:07;25.07;;;15.50;;
32407;SDS011;18869;55.970;37.502;2023-02-25T03:52:37;21.43;;;15.47;;
32407;SDS011;18869;55.970;37.502;2023-02-25T03:55:07;24.43;;;15.20;;
32407;SDS011;18869;55.970;37.502;2023-02-25T03:57:36;24.30;;;15.97;;
32407;SDS011;18869;55.970;37.502;2023-02-25T04:00:06;24.73;;;15.67;;
32407;SDS011;18869;55.970;37.502;2023-02-25T04:02:41;22.10;;;14.47;;
32407;SDS011;18869;55.970;37.502;2023-02-25T04:05:10;23.67;;;16.07;;
32407;SDS011;18869;55.970;37.502;2023-02-25T04:07:41;19.00;;;14.70;;
32407;SDS011;18869;55.970;37.502;2023-02-25T04:10:11;22.07;;;15.73;;
32407;SDS011;18869;55.970;37.502;2023-02-25T04:12:40;20.60;;;14.03;;
32407;SDS011;18869;55.970;37.502;2023-02-25T04:15:09;23.07;;;15.33;;
32407;SDS011;18869;55.970;37.502;2023-02-25T04:17:38;24.53;;;15.77;;
32407;SDS011;18869;55.970;37.502;2023-02-25T04:20:07;21.50;;;15.53;;
32407;SDS011;18869;55.970;37.502;2023-02-25T04:22:37;21.03;;;14.63;;
32407;SDS011;18869;55.970;37.502;2023-02-25T04:25:07;19.57;;;14.17;;
32407;SDS011;18869;55.970;37.502;2023-02-25T04:27:34;21.93;;;15.13;;
32407;SDS011;18869;55.970;37.502;2023-02-25T04:30:02;20.27;;;15.00;;
32407;SDS011;18869;55.970;37.502;2023-02-25T04:32:31;21.07;;;15.27;;
32407;SDS011;18869;55.970;37.502;2023-02-25T04:34:58;23.57;;;15.30;;
32407;SDS011;18869;55.970;37.502;2023-02-25T04:37:30;23.53;;;15.30;;
32407;SDS011;18869;55.970;37.502;2023-02-25T04:39:58;23.83;;;16.07;;
32407;SDS011;18869;55.970;37.502;2023-02-25T04:42:25;22.07;;;14.57;;
32407;SDS011;18869;55.970;37.502;2023-02-25T04:44:53;21.33;;;15.23;;
32407;SDS011;18869;55.970;37.502;2023-02-25T04:47:20;22.83;;;15.73;;
32407;SDS011;18869;55.970;37.502;2023-02-25T04:49:48;22.43;;;15.60;;
32407;SDS011;18869;55.970;37.502;2023-02-25T04:52:18;21.60;;;15.03;;
32407;SDS011;18869;55.970;37.502;2023-02-25T04:54:47;22.20;;;14.93;;
32407;SDS011;18869;55.970;37.502;2023-02-25T04:57:15;24.97;;;16.63;;
32407;SDS011;18869;55.970;37.502;2023-02-25T04:59:43;26.77;;;17.03;;
32407;SDS011;18869;55.970;37.502;2023-02-25T05:02:11;26.67;;;16.40;;
32407;SDS011;18869;55.970;37.502;2023-02-25T05:04:39;23.83;;;15.97;;
32407;SDS011;18869;55.970;37.502;2023-02-25T05:07:06;22.37;;;15.33;;
32407;SDS011;18869;55.970;37.502;2023-02-25T05:09:34;27.10;;;17.20;;
32407;SDS011;18869;55.970;37.502;2023-02-25T05:12:03;22.47;;;14.80;;
32407;SDS011;18869;55.970;37.502;2023-02-25T05:14:31;22.37;;;15.07;;
32407;SDS011;18869;55.970;37.502;2023-02-25T05:16:59;23.17;;;15.13;;
32407;SDS011;18869;55.970;37.502;2023-02-25T05:19:27;26.70;;;16.37;;
32407;SDS011;18869;55.970;37.502;2023-02-25T05:21:54;23.50;;;14.80;;
32407;SDS011;18869;55.970;37.502;2023-02-25T05:24:22;26.20;;;17.77;;
32407;SDS011;18869;55.970;37.502;2023-02-25T05:26:50;23.93;;;16.10;;
32407;SDS011;18869;55.970;37.502;2023-02-25T05:29:19;24.57;;;15.43;;
32407;SDS011;18869;55.970;37.502;2023-02-25T05:31:47;25.53;;;16.63;;
32407;SDS011;18869;55.970;37.502;2023-02-25T05:34:16;22.80;;;15.50;;
32407;SDS011;18869;55.970;37.502;2023-02-25T05:36:43;26.80;;;15.80;;
32407;SDS011;18869;55.970;37.502;2023-02-25T05:39:12;19.37;;;14.97;;
32407;SDS011;18869;55.970;37.502;2023-02-25T05:41:40;22.00;;;15.63;;
32407;SDS011;18869;55.970;37.502;2023-02-25T05:44:08;21.10;;;14.57;;
32407;SDS011;18869;55.970;37.502;2023-02-25T05:46:37;21.80;;;15.40;;
32407;SDS011;18869;55.970;37.502;2023-02-25T05:49:05;22.30;;;15.03;;
32407;SDS011;18869;55.970;37.502;2023-02-25T05:51:33;19.57;;;14.27;;
32407;SDS011;18869;55.970;37.502;2023-02-25T05:54:02;19.83;;;14.67;;
32407;SDS011;18869;55.970;37.502;2023-02-25T05:56:30;20.43;;;15.13;;
32407;SDS011;18869;55.970;37.502;2023-02-25T05:58:58;23.23;;;14.53;;
32407;SDS011;18869;55.970;37.502;2023-02-25T06:01:26;22.13;;;15.83;;
32407;SDS011;18869;55.970;37.502;2023-02-25T06:03:56;21.57;;;15.23;;
32407;SDS011;18869;55.970;37.502;2023-02-25T06:06:24;21.40;;;13.87;;
32407;SDS011;18869;55.970;37.502;2023-02-25T06:08:53;18.93;;;14.57;;
32407;SDS011;18869;55.970;37.502;2023-02-25T06:11:22;21.90;;;14.93;;
32407;SDS011;18869;55.970;37.502;2023-02-25T06:13:51;20.40;;;14.33;;
32407;SDS011;18869;55.970;37.502;2023-02-25T06:16:20;18.53;;;12.97;;
32407;SDS011;18869;55.970;37.502;2023-02-25T06:18:50;21.53;;;14.97;;
32407;SDS011;18869;55.970;37.502;2023-02-25T06:21:19;21.57;;;14.43;;
32407;SDS011;18869;55.970;37.502;2023-02-25T06:23:46;21.50;;;13.80;;
32407;SDS011;18869;55.970;37.502;2023-02-25T06:26:16;17.27;;;14.10;;
32407;SDS011;18869;55.970;37.502;2023-02-25T06:28:43;19.30;;;13.77;;
32407;SDS011;18869;55.970;37.502;2023-02-25T06:31:13;17.40;;;12.93;;
32407;SDS011;18869;55.970;37.502;2023-02-25T06:33:42;17.33;;;13.60;;
32407;SDS011;18869;55.970;37.502;2023-02-25T06:36:10;18.17;;;13.27;;
32407;SDS011;18869;55.970;37.502;2023-02-25T06:38:39;16.20;;;14.00;;
32407;SDS011;18869;55.970;37.502;2023-02-25T06:41:08;20.53;;;13.37;;
32407;SDS011;18869;55.970;37.502;2023-02-25T06:43:36;15.10;;;12.97;;
32407;SDS011;18869;55.970;37.502;2023-02-25T06:46:05;17.43;;;12.73;;
32407;SDS011;18869;55.970;37.502;2023-02-25T06:48:34;22.40;;;14.33;;
32407;SDS011;18869;55.970;37.502;2023-02-25T06:51:01;22.77;;;14.47;;
32407;SDS011;18869;55.970;37.502;2023-02-25T06:53:34;21.73;;;13.70;;
32407;SDS011;18869;55.970;37.502;2023-02-25T06:59:51;16.83;;;12.77;;
32407;SDS011;18869;55.970;37.502;2023-02-25T07:02:18;15.37;;;12.10;;
32407;SDS011;18869;55.970;37.502;2023-02-25T07:04:47;18.13;;;12.83;;
32407;SDS011;18869;55.970;37.502;2023-02-25T07:07:14;20.13;;;13.10;;
32407;SDS011;18869;55.970;37.502;2023-02-25T07:09:42;22.70;;;13.13;;
32407;SDS011;18869;55.970;37.502;2023-02-25T07:12:10;16.43;;;11.90;;
32407;SDS011;18869;55.970;37.502;2023-02-25T07:14:38;17.03;;;12.20;;
32407;SDS011;18869;55.970;37.502;2023-02-25T07:17:07;17.97;;;12.93;;
32407;SDS011;18869;55.970;37.502;2023-02-25T07:19:35;16.00;;;12.73;;
32407;SDS011;18869;55.970;37.502;2023-02-25T07:22:02;16.47;;;12.43;;
32407;SDS011;18869;55.970;37.502;2023-02-25T07:24:31;14.20;;;10.93;;
32407;SDS011;18869;55.970;37.502;2023-02-25T07:26:59;15.60;;;11.57;;
32407;SDS011;18869;55.970;37.502;2023-02-25T07:29:29;14.23;;;11.40;;
32407;SDS011;18869;55.970;37.502;2023-02-25T07:31:57;17.20;;;11.77;;
32407;SDS011;18869;55.970;37.502;2023-02-25T07:34:26;13.67;;;11.17;;
32407;SDS011;18869;55.970;37.502;2023-02-25T07:36:53;19.87;;;12.07;;
32407;SDS011;18869;55.970;37.502;2023-02-25T07:39:21;14.67;;;10.97;;
32407;SDS011;18869;55.970;37.502;2023-02-25T07:41:53;17.17;;;11.70;;
32407;SDS011;18869;55.970;37.502;2023-02-25T07:44:20;15.60;;;11.20;;
32407;SDS011;18869;55.970;37.502;2023-02-25T07:46:48;11.53;;;10.33;;
32407;SDS011;18869;55.970;37.502;2023-02-25T07:49:18;14.57;;;11.30;;
32407;SDS011;18869;55.970;37.502;2023-02-25T07:51:47;13.13;;;10.53;;
32407;SDS011;18869;55.970;37.502;2023-02-25T07:54:15;13.23;;;11.10;;
32407;SDS011;18869;55.970;37.502;2023-02-25T07:56:46;14.70;;;9.67;;
32407;SDS011;18869;55.970;37.502;2023-02-25T07:59:15;12.87;;;10.87;;
32407;SDS011;18869;55.970;37.502;2023-02-25T08:01:43;14.80;;;10.57;;
32407;SDS011;18869;55.970;37.502;2023-02-25T08:04:11;11.87;;;9.63;;
32407;SDS011;18869;55.970;37.502;2023-02-25T08:06:39;11.47;;;9.10;;
32407;SDS011;18869;55.970;37.502;2023-02-25T08:09:10;13.97;;;9.37;;
32407;SDS011;18869;55.970;37.502;2023-02-25T08:11:39;13.30;;;9.53;;
32407;SDS011;18869;55.970;37.502;2023-02-25T08:14:07;13.47;;;10.03;;
32407;SDS011;18869;55.970;37.502;2023-02-25T08:16:35;11.20;;;10.10;;
32407;SDS011;18869;55.970;37.502;2023-02-25T08:19:03;14.57;;;9.97;;
32407;SDS011;18869;55.970;37.502;2023-02-25T08:21:31;11.10;;;9.70;;
32407;SDS011;18869;55.970;37.502;2023-02-25T08:23:58;12.33;;;9.37;;
32407;SDS011;18869;55.970;37.502;2023-02-25T08:26:28;12.40;;;10.53;;
32407;SDS011;18869;55.970;37.502;2023-02-25T08:28:55;16.07;;;10.03;;
32407;SDS011;18869;55.970;37.502;2023-02-25T08:31:23;11.00;;;9.87;;
32407;SDS011;18869;55.970;37.502;2023-02-25T08:33:51;11.70;;;10.00;;
32407;SDS011;18869;55.970;37.502;2023-02-25T08:36:20;11.67;;;10.03;;
32407;SDS011;18869;55.970;37.502;2023-02-25T08:38:49;11.03;;;9.43;;
32407;SDS011;18869;55.970;37.502;2023-02-25T08:41:17;12.37;;;10.10;;
32407;SDS011;18869;55.970;37.502;2023-02-25T08:43:48;13.43;;;10.70;;
32407;SDS011;18869;55.970;37.502;2023-02-25T08:46:19;11.10;;;9.27;;
32407;SDS011;18869;55.970;37.502;2023-02-25T08:48:47;11.60;;;9.17;;
32407;SDS011;18869;55.970;37.502;2023-02-25T08:51:15;12.33;;;9.93;;
32407;SDS011;18869;55.970;37.502;2023-02-25T08:53:44;11.00;;;9.50;;
32407;SDS011;18869;55.970;37.502;2023-02-25T08:56:12;11.80;;;10.07;;
32407;SDS011;18869;55.970;37.502;2023-02-25T08:58:41;13.00;;;9.47;;
32407;SDS011;18869;55.970;37.502;2023-02-25T09:01:12;15.80;;;9.63;;
32407;SDS011;18869;55.970;37.502;2023-02-25T09:03:41;10.87;;;9.77;;
32407;SDS011;18869;55.970;37.502;2023-02-25T09:06:16;12.33;;;9.57;;
32407;SDS011;18869;55.970;37.502;2023-02-25T09:08:43;19.37;;;9.67;;
32407;SDS011;18869;55.970;37.502;2023-02-25T09:11:11;12.83;;;10.13;;
32407;SDS011;18869;55.970;37.502;2023-02-25T09:13:39;12.37;;;9.73;;
32407;SDS011;18869;55.970;37.502;2023-02-25T09:16:06;11.87;;;9.30;;
32407;SDS011;18869;55.970;37.502;2023-02-25T09:18:35;11.77;;;10.17;;
32407;SDS011;18869;55.970;37.502;2023-02-25T09:21:03;10.93;;;9.30;;
32407;SDS011;18869;55.970;37.502;2023-02-25T09:23:31;9.93;;;8.93;;
32407;SDS011;18869;55.970;37.502;2023-02-25T09:26:00;11.10;;;9.53;;
32407;SDS011;18869;55.970;37.502;2023-02-25T09:28:30;12.57;;;9.20;;
32407;SDS011;18869;55.970;37.502;2023-02-25T09:34:06;11.23;;;8.80;;
32407;SDS011;18869;55.970;37.502;2023-02-25T09:36:35;12.10;;;9.77;;
32407;SDS011;18869;55.970;37.502;2023-02-25T09:39:03;11.90;;;9.40;;
32407;SDS011;18869;55.970;37.502;2023-02-25T09:41:39;15.67;;;10.20;;
32407;SDS011;18869;55.970;37.502;2023-02-25T09:44:10;15.90;;;10.10;;
32407;SDS011;18869;55.970;37.502;2023-02-25T09:46:43;13.47;;;9.53;;
32407;SDS011;18869;55.970;37.502;2023-02-25T09:49:16;11.00;;;8.97;;
32407;SDS011;18869;55.970;37.502;2023-02-25T09:51:49;12.37;;;8.77;;
32407;SDS011;18869;55.970;37.502;2023-02-25T09:54:22;13.80;;;10.00;;
32407;SDS011;18869;55.970;37.502;2023-02-25T09:56:52;12.47;;;10.27;;
32407;SDS011;18869;55.970;37.502;2023-02-25T09:59:20;10.90;;;9.80;;
32407;SDS011;18869;55.970;37.502;2023-02-25T10:01:50;13.47;;;10.30;;
32407;SDS011;18869;55.970;37.502;2023-02-25T10:04:25;11.33;;;9.67;;
32407;SDS011;18869;55.970;37.502;2023-02-25T10:07:00;17.83;;;9.63;;
32407;SDS011;18869;55.970;37.502;2023-02-25T10:09:36;14.27;;;9.93;;
32407;SDS011;18869;55.970;37.502;2023-02-25T10:12:12;11.17;;;9.67;;
32407;SDS011;18869;55.970;37.502;2023-02-25T10:17:43;12.23;;;9.57;;
32407;SDS011;18869;55.970;37.502;2023-02-25T10:20:23;11.20;;;9.37;;
32407;SDS011;18869;55.970;37.502;2023-02-25T10:23:06;15.57;;;10.33;;
32407;SDS011;18869;55.970;37.502;2023-02-25T10:25:38;10.43;;;9.33;;
32407;SDS011;18869;55.970;37.502;2023-02-25T10:28:09;9.80;;;8.80;;
32407;SDS011;18869;55.970;37.502;2023-02-25T10:30:46;12.33;;;9.37;;
32407;SDS011;18869;55.970;37.502;2023-02-25T10:33:17;16.10;;;9.60;;
32407;SDS011;18869;55.970;37.502;2023-02-25T10:35:53;10.67;;;8.77;;
32407;SDS011;18869;55.970;37.502;2023-02-25T10:38:28;9.87;;;8.40;;
32407;SDS011;18869;55.970;37.502;2023-02-25T10:40:57;9.33;;;8.30;;
32407;SDS011;18869;55.970;37.502;2023-02-25T10:43:26;11.57;;;8.30;;
32407;SDS011;18869;55.970;37.502;2023-02-25T10:45:59;12.33;;;8.73;;
32407;SDS011;18869;55.970;37.502;2023-02-25T10:48:32;9.47;;;8.20;;
32407;SDS011;18869;55.970;37.502;2023-02-25T10:51:06;12.43;;;7.80;;
32407;SDS011;18869;55.970;37.502;2023-02-25T10:53:37;11.63;;;8.97;;
32407;SDS011;18869;55.970;37.502;2023-02-25T10:56:05;9.37;;;7.57;;
32407;SDS011;18869;55.970;37.502;2023-02-25T10:58:35;10.43;;;8.23;;
32407;SDS011;18869;55.970;37.502;2023-02-25T11:01:11;9.80;;;8.80;;
32407;SDS011;18869;55.970;37.502;2023-02-25T11:03:44;11.43;;;8.03;;
32407;SDS011;18869;55.970;37.502;2023-02-25T11:06:21;11.40;;;7.93;;
32407;SDS011;18869;55.970;37.502;2023-02-25T11:08:50;9.10;;;8.20;;
32407;SDS011;18869;55.970;37.502;2023-02-25T11:11:20;9.53;;;8.63;;
32407;SDS011;18869;55.970;37.502;2023-02-25T11:13:54;9.97;;;7.53;;
32407;SDS011;18869;55.970;37.502;2023-02-25T11:16:26;9.27;;;8.30;;
32407;SDS011;18869;55.970;37.502;2023-02-25T11:18:55;9.13;;;7.40;;
32407;SDS011;18869;55.970;37.502;2023-02-25T11:21:34;12.60;;;8.43;;
32407;SDS011;18869;55.970;37.502;2023-02-25T11:24:03;11.83;;;8.40;;
32407;SDS011;18869;55.970;37.502;2023-02-25T11:26:32;11.60;;;7.97;;
32407;SDS011;18869;55.970;37.502;2023-02-25T11:29:04;8.20;;;7.40;;
32407;SDS011;18869;55.970;37.502;2023-02-25T11:31:34;10.97;;;7.80;;
32407;SDS011;18869;55.970;37.502;2023-02-25T11:34:06;11.00;;;7.93;;
32407;SDS011;18869;55.970;37.502;2023-02-25T11:36:41;9.03;;;7.53;;
32407;SDS011;18869;55.970;37.502;2023-02-25T11:39:14;12.93;;;7.73;;
32407;SDS011;18869;55.970;37.502;2023-02-25T11:41:44;9.90;;;8.27;;
32407;SDS011;18869;55.970;37.502;2023-02-25T11:44:17;7.80;;;7.00;;
32407;SDS011;18869;55.970;37.502;2023-02-25T11:46:49;14.77;;;8.20;;
32407;SDS011;18869;55.970;37.502;2023-02-25T11:49:25;10.93;;;8.07;;
32407;SDS011;18869;55.970;37.502;2023-02-25T11:52:03;8.77;;;7.87;;
32407;SDS011;18869;55.970;37.502;2023-02-25T11:54:36;7.00;;;6.40;;
32407;SDS011;18869;55.970;37.502;2023-02-25T11:57:09;7.90;;;7.10;;
32407;SDS011;18869;55.970;37.502;2023-02-25T11:59:41;8.83;;;7.50;;
32407;SDS011;18869;55.970;37.502;2023-02-25T12:02:18;9.17;;;7.87;;
32407;SDS011;18869;55.970;37.502;2023-02-25T12:04:58;8.73;;;7.03;;
32407;SDS011;18869;55.970;37.502;2023-02-25T12:10:39;10.60;;;6.93;;
32407;SDS011;18869;55.970;37.502;2023-02-25T12:13:20;8.20;;;6.73;;
32407;SDS011;18869;55.970;37.502;2023-02-25T12:25:21;8.73;;;7.77;;
32407;SDS011;18869;55.970;37.502;2023-02-25T12:27:58;11.50;;;8.10;;
32407;SDS011;18869;55.970;37.502;2023-02-25T12:30:39;10.23;;;8.23;;
32407;SDS011;18869;55.970;37.502;2023-02-25T12:33:23;7.70;;;6.97;;
32407;SDS011;18869;55.970;37.502;2023-02-25T12:36:07;8.10;;;7.27;;
32407;SDS011;18869;55.970;37.502;2023-02-25T12:38:54;8.60;;;7.70;;
32407;SDS011;18869;55.970;37.502;2023-02-25T12:41:40;8.80;;;7.87;;
32407;SDS011;18869;55.970;37.502;2023-02-25T12:44:29;13.63;;;8.30;;
32407;SDS011;18869;55.970;37.502;2023-02-25T12:47:23;9.07;;;7.00;;
32407;SDS011;18869;55.970;37.502;2023-02-25T12:52:50;8.80;;;7.90;;
32407;SDS011;18869;55.970;37.502;2023-02-25T12:55:30;7.73;;;6.90;;
32407;SDS011;18869;55.970;37.502;2023-02-25T12:58:15;6.80;;;6.20;;
32407;SDS011;18869;55.970;37.502;2023-02-25T13:00:55;12.97;;;7.57;;
32407;SDS011;18869;55.970;37.502;2023-02-25T13:03:53;8.13;;;7.43;;
32407;SDS011;18869;55.970;37.502;2023-02-25T13:09:38;8.67;;;7.83;;
32407;SDS011;18869;55.970;37.502;2023-02-25T13:12:20;9.97;;;7.63;;
32407;SDS011;18869;55.970;37.502;2023-02-25T13:15:10;10.67;;;7.93;;
32407;SDS011;18869;55.970;37.502;2023-02-25T13:17:44;9.87;;;8.07;;
32407;SDS011;18869;55.970;37.502;2023-02-25T13:20:35;14.77;;;8.70;;
32407;SDS011;18869;55.970;37.502;2023-02-25T13:23:13;10.07;;;8.30;;
32407;SDS011;18869;55.970;37.502;2023-02-25T13:26:13;8.23;;;7.33;;
32407;SDS011;18869;55.970;37.502;2023-02-25T13:28:51;8.40;;;7.60;;
32407;SDS011;18869;55.970;37.502;2023-02-25T13:31:30;9.13;;;7.10;;
32407;SDS011;18869;55.970;37.502;2023-02-25T13:34:06;9.33;;;7.23;;
32407;SDS011;18869;55.970;37.502;2023-02-25T13:36:45;7.53;;;6.83;;
32407;SDS011;18869;55.970;37.502;2023-02-25T13:39:34;8.67;;;7.77;;
32407;SDS011;18869;55.970;37.502;2023-02-25T13:42:17;9.97;;;9.07;;
32407;SDS011;18869;55.970;37.502;2023-02-25T13:45:28;8.77;;;7.73;;
32407;SDS011;18869;55.970;37.502;2023-02-25T13:48:48;8.67;;;7.77;;
32407;SDS011;18869;55.970;37.502;2023-02-25T13:51:37;8.10;;;6.83;;
32407;SDS011;18869;55.970;37.502;2023-02-25T13:57:23;10.83;;;7.50;;
32407;SDS011;18869;55.970;37.502;2023-02-25T13:59:59;10.93;;;7.73;;
32407;SDS011;18869;55.970;37.502;2023-02-25T14:03:02;9.80;;;7.87;;
32407;SDS011;18869;55.970;37.502;2023-02-25T14:05:47;8.23;;;7.43;;
32407;SDS011;18869;55.970;37.502;2023-02-25T14:08:23;8.30;;;7.40;;
32407;SDS011;18869;55.970;37.502;2023-02-25T14:11:01;9.03;;;8.13;;
32407;SDS011;18869;55.970;37.502;2023-02-25T14:13:49;12.20;;;9.93;;
32407;SDS011;18869;55.970;37.502;2023-02-25T14:16:28;11.67;;;10.47;;
32407;SDS011;18869;55.970;37.502;2023-02-25T14:19:06;14.73;;;10.13;;
32407;SDS011;18869;55.970;37.502;2023-02-25T14:22:06;18.43;;;11.13;;
32407;SDS011;18869;55.970;37.502;2023-02-25T14:24:45;13.23;;;10.43;;
32407;SDS011;18869;55.970;37.502;2023-02-25T14:27:19;12.23;;;10.77;;
32407;SDS011;18869;55.970;37.502;2023-02-25T14:30:02;13.93;;;10.70;;
32407;SDS011;18869;55.970;37.502;2023-02-25T14:32:42;11.00;;;9.77;;
32407;SDS011;18869;55.970;37.502;2023-02-25T14:35:21;13.77;;;8.77;;
32407;SDS011;18869;55.970;37.502;2023-02-25T14:37:58;11.57;;;10.17;;
32407;SDS011;18869;55.970;37.502;2023-02-25T14:40:33;14.23;;;10.20;;
32407;SDS011;18869;55.970;37.502;2023-02-25T14:45:55;11.00;;;9.83;;
32407;SDS011;18869;55.970;37.502;2023-02-25T14:48:28;12.53;;;10.00;;
32407;SDS011;18869;55.970;37.502;2023-02-25T14:51:07;14.53;;;10.17;;
32407;SDS011;18869;55.970;37.502;2023-02-25T14:54:00;11.07;;;9.33;;
32407;SDS011;18869;55.970;37.502;2023-02-25T15:02:51;12.73;;;10.33;;
32407;SDS011;18869;55.970;37.502;2023-02-25T15:05:36;13.63;;;10.27;;
32407;SDS011;18869;55.970;37.502;2023-02-25T15:08:29;12.40;;;10.73;;
32407;SDS011;18869;55.970;37.502;2023-02-25T15:11:15;13.40;;;8.93;;
32407;SDS011;18869;55.970;37.502;2023-02-25T15:14:20;11.33;;;9.83;;
32407;SDS011;18869;55.970;37.502;2023-02-25T15:20:02;13.07;;;10.70;;
32407;SDS011;18869;55.970;37.502;2023-02-25T15:22:44;12.27;;;9.27;;
32407;SDS011;18869;55.970;37.502;2023-02-25T15:31:08;13.03;;;9.77;;
32407;SDS011;18869;55.970;37.502;2023-02-25T15:33:38;11.43;;;9.67;;
32407;SDS011;18869;55.970;37.502;2023-02-25T15:36:21;14.00;;;11.63;;
32407;SDS011;18869;55.970;37.502;2023-02-25T15:38:53;15.33;;;10.97;;
32407;SDS011;18869;55.970;37.502;2023-02-25T15:41:41;13.83;;;11.30;;
32407;SDS011;18869;55.970;37.502;2023-02-25T15:49:53;16.13;;;13.50;;
32407;SDS011;18869;55.970;37.502;2023-02-25T15:55:35;17.57;;;12.43;;
32407;SDS011;18869;55.970;37.502;2023-02-25T16:04:23;30.47;;;16.60;;
32407;SDS011;18869;55.970;37.502;2023-02-25T16:07:13;27.03;;;15.67;;